PWSweather.com
Personal Weather Stations
Station Observations
ISYDDANM23
Felsted, AabenraaDK 6200

FelstedAabenraaDK 6200

Lat: 54.977066, Lon: 9.507192

Elevation: 135

Station Type: Davis Vantage Pro 2 Plus 24H

http://www.valkaer.dk

High Low Average
Temperature 52.0°F11.1°C 39.9°F4.4°C 46.6°F8.1°C
Dew Point 45.0°F7.2°C 31.1°F-0.5°C 39.8°F4.3°C
Winds 19.6 mph 31.5 kmh 5.8 mph 9.3 kmh 13.0 mph W20.9 kmh W
Wind Gusts 29.9 mph48.1 kmh 5.8 mph9.3 kmh 18.0 mph29.0 kmh
Humidity 90% 58% 78%
Pressure 29.74 in1007.1 mb 29.57 in1001.4 mb -
Precipitation 0.00 in0.0 mm - -
Hour Temp Dew Point Humidity Winds Wind Gusts Pressure Precip Precip Rate Daily Precip Total
12:00 AM 47.3°F8.5°C 42.1°F5.6°C 82% 12.7 mph W20.4 kmh W 16.1 mph25.9 kmh 29.74 in1007.1 mb - 0.00 in0.0 mm 0.00 in0.0 mm
12:10 AM 47.3°F8.5°C 42.1°F5.6°C 82% 13.8 mph W22.2 kmh W 16.1 mph25.9 kmh 29.74 in1007.1 mb - 0.00 in0.0 mm 0.00 in0.0 mm
12:15 AM 47.5°F8.6°C 42.2°F5.7°C 82% 9.2 mph W14.8 kmh W 11.5 mph18.5 kmh 29.74 in1007.1 mb - 0.00 in0.0 mm 0.00 in0.0 mm
12:20 AM 47.4°F8.6°C 42.2°F5.7°C 82% 11.5 mph W18.5 kmh W 16.1 mph25.9 kmh 29.74 in1007.1 mb - 0.00 in0.0 mm 0.00 in0.0 mm
12:25 AM 47.5°F8.6°C 42.3°F5.7°C 82% 12.7 mph W20.4 kmh W 16.1 mph25.9 kmh 29.73 in1006.8 mb - 0.00 in0.0 mm 0.00 in0.0 mm
12:30 AM 47.4°F8.6°C 42.5°F5.8°C 83% 10.4 mph W16.7 kmh W 15.0 mph24.1 kmh 29.73 in1006.8 mb - 0.00 in0.0 mm 0.00 in0.0 mm
12:35 AM 47.3°F8.5°C 42.4°F5.8°C 83% 12.7 mph W20.4 kmh W 18.4 mph29.6 kmh 29.73 in1006.8 mb - 0.00 in0.0 mm 0.00 in0.0 mm
12:40 AM 47.3°F8.5°C 42.4°F5.8°C 83% 10.4 mph W16.7 kmh W 11.5 mph18.5 kmh 29.72 in1006.4 mb - 0.00 in0.0 mm 0.00 in0.0 mm
12:45 AM 47.2°F8.4°C 42.3°F5.7°C 83% 10.4 mph WNW16.7 kmh WNW 13.8 mph22.2 kmh 29.72 in1006.4 mb - 0.00 in0.0 mm 0.00 in0.0 mm
12:50 AM 47.1°F8.4°C 42.2°F5.7°C 83% 12.7 mph W20.4 kmh W 16.1 mph25.9 kmh 29.72 in1006.4 mb - 0.00 in0.0 mm 0.00 in0.0 mm
12:55 AM 47.1°F8.4°C 42.2°F5.7°C 83% 11.5 mph W18.5 kmh W 13.8 mph22.2 kmh 29.72 in1006.4 mb - 0.00 in0.0 mm 0.00 in0.0 mm
01:00 AM 47.1°F8.4°C 42.2°F5.7°C 83% 10.4 mph W16.7 kmh W 11.5 mph18.5 kmh 29.72 in1006.4 mb - 0.00 in0.0 mm 0.00 in0.0 mm
01:10 AM 47.0°F8.3°C 42.1°F5.6°C 83% 13.8 mph W22.2 kmh W 19.6 mph31.5 kmh 29.71 in1006.1 mb - 0.00 in0.0 mm 0.00 in0.0 mm
01:15 AM 47.0°F8.3°C 42.1°F5.6°C 83% 11.5 mph WNW18.5 kmh WNW 16.1 mph25.9 kmh 29.71 in1006.1 mb - 0.00 in0.0 mm 0.00 in0.0 mm
01:20 AM 47.0°F8.3°C 42.1°F5.6°C 83% 12.7 mph W20.4 kmh W 15.0 mph24.1 kmh 29.70 in1005.8 mb - 0.00 in0.0 mm 0.00 in0.0 mm
01:25 AM 46.9°F8.3°C 41.7°F5.4°C 82% 16.1 mph W25.9 kmh W 23.0 mph37.0 kmh 29.71 in1006.1 mb - 0.00 in0.0 mm 0.00 in0.0 mm
01:30 AM 46.9°F8.3°C 41.7°F5.4°C 82% 13.8 mph W22.2 kmh W 19.6 mph31.5 kmh 29.70 in1005.8 mb - 0.00 in0.0 mm 0.00 in0.0 mm
01:35 AM 46.9°F8.3°C 41.7°F5.4°C 82% 16.1 mph W25.9 kmh W 26.5 mph42.6 kmh 29.70 in1005.8 mb - 0.00 in0.0 mm 0.00 in0.0 mm
01:40 AM 46.7°F8.2°C 41.5°F5.3°C 82% 11.5 mph WNW18.5 kmh WNW 16.1 mph25.9 kmh 29.70 in1005.8 mb - 0.00 in0.0 mm 0.00 in0.0 mm
01:45 AM 46.6°F8.1°C 41.7°F5.4°C 83% 9.2 mph W14.8 kmh W 16.1 mph25.9 kmh 29.70 in1005.8 mb - 0.00 in0.0 mm 0.00 in0.0 mm
01:50 AM 46.5°F8.1°C 41.6°F5.3°C 83% 13.8 mph WNW22.2 kmh WNW 24.2 mph38.9 kmh 29.70 in1005.8 mb - 0.00 in0.0 mm 0.00 in0.0 mm
01:55 AM 46.4°F8.0°C 41.9°F5.5°C 84% 12.7 mph WNW20.4 kmh WNW 15.0 mph24.1 kmh 29.70 in1005.8 mb - 0.00 in0.0 mm 0.00 in0.0 mm
02:00 AM 46.3°F7.9°C 41.8°F5.4°C 84% 13.8 mph W22.2 kmh W 19.6 mph31.5 kmh 29.69 in1005.4 mb - 0.00 in0.0 mm 0.00 in0.0 mm
02:10 AM 46.3°F7.9°C 41.7°F5.4°C 84% 16.1 mph W25.9 kmh W 19.6 mph31.5 kmh 29.69 in1005.4 mb - 0.00 in0.0 mm 0.00 in0.0 mm
02:15 AM 46.2°F7.9°C 41.9°F5.5°C 85% 11.5 mph W18.5 kmh W 12.7 mph20.4 kmh 29.69 in1005.4 mb - 0.00 in0.0 mm 0.00 in0.0 mm
02:20 AM 46.0°F7.8°C 42.1°F5.6°C 86% 17.3 mph W27.8 kmh W 20.7 mph33.3 kmh 29.68 in1005.1 mb - 0.00 in0.0 mm 0.00 in0.0 mm
02:25 AM 45.9°F7.7°C 41.9°F5.5°C 86% 17.3 mph W27.8 kmh W 20.7 mph33.3 kmh 29.68 in1005.1 mb - 0.00 in0.0 mm 0.00 in0.0 mm
02:30 AM 45.8°F7.7°C 42.2°F5.7°C 87% 11.5 mph W18.5 kmh W 18.4 mph29.6 kmh 29.68 in1005.1 mb - 0.00 in0.0 mm 0.00 in0.0 mm
02:35 AM 45.7°F7.6°C 42.1°F5.6°C 87% 15.0 mph W24.1 kmh W 20.7 mph33.3 kmh 29.68 in1005.1 mb - 0.00 in0.0 mm 0.00 in0.0 mm
02:40 AM 45.6°F7.6°C 42.3°F5.7°C 88% 15.0 mph W24.1 kmh W 19.6 mph31.5 kmh 29.68 in1005.1 mb - 0.00 in0.0 mm 0.00 in0.0 mm
02:45 AM 45.6°F7.6°C 42.3°F5.7°C 88% 12.7 mph W20.4 kmh W 19.6 mph31.5 kmh 29.68 in1005.1 mb - 0.00 in0.0 mm 0.00 in0.0 mm
02:50 AM 45.5°F7.5°C 42.4°F5.8°C 89% 15.0 mph W24.1 kmh W 20.7 mph33.3 kmh 29.68 in1005.1 mb - 0.00 in0.0 mm 0.00 in0.0 mm
02:55 AM 45.5°F7.5°C 42.5°F5.8°C 89% 15.0 mph W24.1 kmh W 19.6 mph31.5 kmh 29.67 in1004.7 mb - 0.00 in0.0 mm 0.00 in0.0 mm
03:00 AM 45.5°F7.5°C 42.5°F5.8°C 89% 11.5 mph W18.5 kmh W 16.1 mph25.9 kmh 29.67 in1004.7 mb - 0.00 in0.0 mm 0.00 in0.0 mm
03:10 AM 45.5°F7.5°C 42.7°F5.9°C 90% 11.5 mph W18.5 kmh W 17.3 mph27.8 kmh 29.67 in1004.7 mb - 0.00 in0.0 mm 0.00 in0.0 mm
03:15 AM 45.6°F7.6°C 42.8°F6.0°C 90% 12.7 mph WSW20.4 kmh WSW 16.1 mph25.9 kmh 29.67 in1004.7 mb - 0.00 in0.0 mm 0.00 in0.0 mm
03:20 AM 45.6°F7.6°C 42.9°F6.1°C 90% 12.7 mph WNW20.4 kmh WNW 15.0 mph24.1 kmh 29.67 in1004.7 mb - 0.00 in0.0 mm 0.00 in0.0 mm
03:25 AM 45.7°F7.6°C 42.9°F6.1°C 90% 12.7 mph W20.4 kmh W 13.8 mph22.2 kmh 29.67 in1004.7 mb - 0.00 in0.0 mm 0.00 in0.0 mm
03:30 AM 45.7°F7.6°C 42.9°F6.1°C 90% 13.8 mph WNW22.2 kmh WNW 16.1 mph25.9 kmh 29.66 in1004.4 mb - 0.00 in0.0 mm 0.00 in0.0 mm
03:35 AM 45.8°F7.7°C 43.0°F6.1°C 90% 9.2 mph W14.8 kmh W 11.5 mph18.5 kmh 29.67 in1004.7 mb - 0.00 in0.0 mm 0.00 in0.0 mm
03:40 AM 45.8°F7.7°C 43.0°F6.1°C 90% 11.5 mph WNW18.5 kmh WNW 19.6 mph31.5 kmh 29.67 in1004.7 mb - 0.00 in0.0 mm 0.00 in0.0 mm
03:45 AM 45.8°F7.7°C 43.0°F6.1°C 90% 12.7 mph WNW20.4 kmh WNW 17.3 mph27.8 kmh 29.66 in1004.4 mb - 0.00 in0.0 mm 0.00 in0.0 mm
03:50 AM 45.8°F7.7°C 42.7°F5.9°C 89% 10.4 mph W16.7 kmh W 20.7 mph33.3 kmh 29.66 in1004.4 mb - 0.00 in0.0 mm 0.00 in0.0 mm
03:55 AM 45.7°F7.6°C 42.7°F5.9°C 89% 13.8 mph WNW22.2 kmh WNW 17.3 mph27.8 kmh 29.66 in1004.4 mb - 0.00 in0.0 mm 0.00 in0.0 mm
04:00 AM 45.8°F7.7°C 42.5°F5.8°C 88% 11.5 mph WNW18.5 kmh WNW 15.0 mph24.1 kmh 29.66 in1004.4 mb - 0.00 in0.0 mm 0.00 in0.0 mm
04:10 AM 45.8°F7.7°C 42.4°F5.8°C 88% 13.8 mph WNW22.2 kmh WNW 20.7 mph33.3 kmh 29.66 in1004.4 mb - 0.00 in0.0 mm 0.00 in0.0 mm
04:15 AM 45.8°F7.7°C 42.4°F5.8°C 88% 10.4 mph W16.7 kmh W 18.4 mph29.6 kmh 29.66 in1004.4 mb - 0.00 in0.0 mm 0.00 in0.0 mm
04:20 AM 45.8°F7.7°C 42.4°F5.8°C 88% 13.8 mph W22.2 kmh W 15.0 mph24.1 kmh 29.66 in1004.4 mb - 0.00 in0.0 mm 0.00 in0.0 mm
04:25 AM 45.8°F7.7°C 42.2°F5.7°C 87% 10.4 mph W16.7 kmh W 11.5 mph18.5 kmh 29.66 in1004.4 mb - 0.00 in0.0 mm 0.00 in0.0 mm
04:30 AM 45.9°F7.7°C 42.2°F5.7°C 87% 11.5 mph W18.5 kmh W 16.1 mph25.9 kmh 29.66 in1004.4 mb - 0.00 in0.0 mm 0.00 in0.0 mm
04:35 AM 45.9°F7.7°C 41.9°F5.5°C 86% 11.5 mph W18.5 kmh W 15.0 mph24.1 kmh 29.65 in1004.1 mb - 0.00 in0.0 mm 0.00 in0.0 mm
04:40 AM 46.0°F7.8°C 42.0°F5.6°C 86% 11.5 mph W18.5 kmh W 17.3 mph27.8 kmh 29.65 in1004.1 mb - 0.00 in0.0 mm 0.00 in0.0 mm
04:45 AM 46.0°F7.8°C 42.1°F5.6°C 86% 12.7 mph W20.4 kmh W 16.1 mph25.9 kmh 29.65 in1004.1 mb - 0.00 in0.0 mm 0.00 in0.0 mm
04:50 AM 46.1°F7.8°C 42.1°F5.6°C 86% 11.5 mph W18.5 kmh W 16.1 mph25.9 kmh 29.65 in1004.1 mb - 0.00 in0.0 mm 0.00 in0.0 mm
04:55 AM 46.1°F7.8°C 42.1°F5.6°C 86% 12.7 mph W20.4 kmh W 15.0 mph24.1 kmh 29.65 in1004.1 mb - 0.00 in0.0 mm 0.00 in0.0 mm
05:00 AM 46.1°F7.8°C 42.2°F5.7°C 86% 15.0 mph W24.1 kmh W 19.6 mph31.5 kmh 29.64 in1003.7 mb - 0.00 in0.0 mm 0.00 in0.0 mm
05:10 AM 46.2°F7.9°C 42.0°F5.6°C 85% 10.4 mph W16.7 kmh W 12.7 mph20.4 kmh 29.65 in1004.1 mb - 0.00 in0.0 mm 0.00 in0.0 mm
05:15 AM 46.2°F7.9°C 42.3°F5.7°C 86% 10.4 mph W16.7 kmh W 12.7 mph20.4 kmh 29.65 in1004.1 mb - 0.00 in0.0 mm 0.00 in0.0 mm
05:20 AM 46.3°F7.9°C 42.3°F5.7°C 86% 10.4 mph W16.7 kmh W 13.8 mph22.2 kmh 29.65 in1004.1 mb - 0.00 in0.0 mm 0.00 in0.0 mm
05:25 AM 46.3°F7.9°C 42.3°F5.7°C 86% 12.7 mph W20.4 kmh W 17.3 mph27.8 kmh 29.64 in1003.7 mb - 0.00 in0.0 mm 0.00 in0.0 mm
05:30 AM 46.4°F8.0°C 42.4°F5.8°C 86% 11.5 mph W18.5 kmh W 16.1 mph25.9 kmh 29.64 in1003.7 mb - 0.00 in0.0 mm 0.00 in0.0 mm
05:35 AM 46.4°F8.0°C 42.4°F5.8°C 86% 10.4 mph W16.7 kmh W 13.8 mph22.2 kmh 29.64 in1003.7 mb - 0.00 in0.0 mm 0.00 in0.0 mm
05:40 AM 46.4°F8.0°C 42.4°F5.8°C 86% 10.4 mph W16.7 kmh W 12.7 mph20.4 kmh 29.64 in1003.7 mb - 0.00 in0.0 mm 0.00 in0.0 mm
05:45 AM 46.2°F7.9°C 42.6°F5.9°C 87% 12.7 mph W20.4 kmh W 18.4 mph29.6 kmh 29.65 in1004.1 mb - 0.00 in0.0 mm 0.00 in0.0 mm
05:50 AM 46.2°F7.9°C 42.5°F5.8°C 87% 9.2 mph W14.8 kmh W 15.0 mph24.1 kmh 29.64 in1003.7 mb - 0.00 in0.0 mm 0.00 in0.0 mm
05:55 AM 46.2°F7.9°C 42.5°F5.8°C 87% 12.7 mph W20.4 kmh W 19.6 mph31.5 kmh 29.64 in1003.7 mb - 0.00 in0.0 mm 0.00 in0.0 mm
06:00 AM 46.2°F7.9°C 42.5°F5.8°C 87% 10.4 mph W16.7 kmh W 17.3 mph27.8 kmh 29.64 in1003.7 mb - 0.00 in0.0 mm 0.00 in0.0 mm
06:10 AM 46.1°F7.8°C 42.4°F5.8°C 87% 13.8 mph W22.2 kmh W 19.6 mph31.5 kmh 29.64 in1003.7 mb - 0.00 in0.0 mm 0.00 in0.0 mm
06:15 AM 46.0°F7.8°C 42.7°F5.9°C 88% 11.5 mph W18.5 kmh W 13.8 mph22.2 kmh 29.64 in1003.7 mb - 0.00 in0.0 mm 0.00 in0.0 mm
06:20 AM 45.9°F7.7°C 42.6°F5.9°C 88% 12.7 mph W20.4 kmh W 13.8 mph22.2 kmh 29.64 in1003.7 mb - 0.00 in0.0 mm 0.00 in0.0 mm
06:25 AM 46.1°F7.8°C 42.7°F5.9°C 88% 12.7 mph W20.4 kmh W 16.1 mph25.9 kmh 29.64 in1003.7 mb - 0.00 in0.0 mm 0.00 in0.0 mm
06:30 AM 46.2°F7.9°C 42.8°F6.0°C 88% 12.7 mph W20.4 kmh W 19.6 mph31.5 kmh 29.64 in1003.7 mb - 0.00 in0.0 mm 0.00 in0.0 mm
06:35 AM 46.1°F7.8°C 42.8°F6.0°C 88% 11.5 mph W18.5 kmh W 19.6 mph31.5 kmh 29.64 in1003.7 mb - 0.00 in0.0 mm 0.00 in0.0 mm
06:40 AM 46.1°F7.8°C 43.0°F6.1°C 89% 11.5 mph W18.5 kmh W 17.3 mph27.8 kmh 29.64 in1003.7 mb - 0.00 in0.0 mm 0.00 in0.0 mm
06:45 AM 46.1°F7.8°C 43.0°F6.1°C 89% 11.5 mph W18.5 kmh W 17.3 mph27.8 kmh 29.64 in1003.7 mb - 0.00 in0.0 mm 0.00 in0.0 mm
06:50 AM 46.0°F7.8°C 43.2°F6.2°C 90% 11.5 mph W18.5 kmh W 16.1 mph25.9 kmh 29.64 in1003.7 mb - 0.00 in0.0 mm 0.00 in0.0 mm
06:55 AM 46.0°F7.8°C 43.3°F6.3°C 90% 12.7 mph W20.4 kmh W 18.4 mph29.6 kmh 29.64 in1003.7 mb - 0.00 in0.0 mm 0.00 in0.0 mm
07:00 AM 46.1°F7.8°C 43.3°F6.3°C 90% 12.7 mph W20.4 kmh W 13.8 mph22.2 kmh 29.64 in1003.7 mb - 0.00 in0.0 mm 0.00 in0.0 mm
07:10 AM 46.2°F7.9°C 43.4°F6.3°C 90% 10.4 mph W16.7 kmh W 13.8 mph22.2 kmh 29.64 in1003.7 mb - 0.00 in0.0 mm 0.00 in0.0 mm
07:15 AM 46.3°F7.9°C 43.2°F6.2°C 89% 12.7 mph WNW20.4 kmh WNW 18.4 mph29.6 kmh 29.64 in1003.7 mb - 0.00 in0.0 mm 0.00 in0.0 mm
07:20 AM 46.3°F7.9°C 43.3°F6.3°C 89% 9.2 mph W14.8 kmh W 15.0 mph24.1 kmh 29.64 in1003.7 mb - 0.00 in0.0 mm 0.00 in0.0 mm
07:25 AM 46.3°F7.9°C 43.2°F6.2°C 89% 12.7 mph WNW20.4 kmh WNW 17.3 mph27.8 kmh 29.64 in1003.7 mb - 0.00 in0.0 mm 0.00 in0.0 mm
07:30 AM 46.2°F7.9°C 43.5°F6.4°C 90% 12.7 mph WNW20.4 kmh WNW 16.1 mph25.9 kmh 29.64 in1003.7 mb - 0.00 in0.0 mm 0.00 in0.0 mm
07:35 AM 46.1°F7.8°C 43.3°F6.3°C 90% 9.2 mph WNW14.8 kmh WNW 10.4 mph16.7 kmh 29.64 in1003.7 mb - 0.00 in0.0 mm 0.00 in0.0 mm
07:40 AM 46.1°F7.8°C 43.3°F6.3°C 90% 11.5 mph W18.5 kmh W 13.8 mph22.2 kmh 29.64 in1003.7 mb - 0.00 in0.0 mm 0.00 in0.0 mm
07:45 AM 46.6°F8.1°C 43.8°F6.6°C 90% 9.2 mph WNW14.8 kmh WNW 15.0 mph24.1 kmh 29.64 in1003.7 mb - 0.00 in0.0 mm 0.00 in0.0 mm
07:50 AM 46.8°F8.2°C 44.1°F6.7°C 90% 10.4 mph W16.7 kmh W 13.8 mph22.2 kmh 29.63 in1003.4 mb - 0.00 in0.0 mm 0.00 in0.0 mm
07:55 AM 47.0°F8.3°C 43.6°F6.4°C 88% 10.4 mph W16.7 kmh W 15.0 mph24.1 kmh 29.63 in1003.4 mb - 0.00 in0.0 mm 0.00 in0.0 mm
08:00 AM 47.0°F8.3°C 43.6°F6.4°C 88% 11.5 mph W18.5 kmh W 24.2 mph38.9 kmh 29.63 in1003.4 mb - 0.00 in0.0 mm 0.00 in0.0 mm
08:10 AM 47.3°F8.5°C 43.6°F6.4°C 87% 13.8 mph W22.2 kmh W 18.4 mph29.6 kmh 29.63 in1003.4 mb - 0.00 in0.0 mm 0.00 in0.0 mm
08:15 AM 47.2°F8.4°C 43.5°F6.4°C 87% 15.0 mph W24.1 kmh W 19.6 mph31.5 kmh 29.63 in1003.4 mb - 0.00 in0.0 mm 0.00 in0.0 mm
08:20 AM 47.0°F8.3°C 43.3°F6.3°C 87% 13.8 mph W22.2 kmh W 19.6 mph31.5 kmh 29.62 in1003.0 mb - 0.00 in0.0 mm 0.00 in0.0 mm
08:25 AM 46.6°F8.1°C 43.3°F6.3°C 88% 11.5 mph W18.5 kmh W 18.4 mph29.6 kmh 29.63 in1003.4 mb - 0.00 in0.0 mm 0.00 in0.0 mm
08:30 AM 46.4°F8.0°C 43.4°F6.3°C 89% 10.4 mph W16.7 kmh W 11.5 mph18.5 kmh 29.63 in1003.4 mb - 0.00 in0.0 mm 0.00 in0.0 mm
08:35 AM 46.5°F8.1°C 43.7°F6.5°C 90% 15.0 mph W24.1 kmh W 19.6 mph31.5 kmh 29.63 in1003.4 mb - 0.00 in0.0 mm 0.00 in0.0 mm
08:40 AM 46.8°F8.2°C 44.1°F6.7°C 90% 12.7 mph W20.4 kmh W 12.7 mph20.4 kmh 29.62 in1003.0 mb - 0.00 in0.0 mm 0.00 in0.0 mm
08:45 AM 47.7°F8.7°C 44.6°F7.0°C 89% 13.8 mph W22.2 kmh W 18.4 mph29.6 kmh 29.62 in1003.0 mb - 0.00 in0.0 mm 0.00 in0.0 mm
08:50 AM 47.6°F8.7°C 44.2°F6.8°C 88% 13.8 mph W22.2 kmh W 19.6 mph31.5 kmh 29.62 in1003.0 mb - 0.00 in0.0 mm 0.00 in0.0 mm
08:55 AM 47.7°F8.7°C 44.0°F6.7°C 87% 13.8 mph W22.2 kmh W 19.6 mph31.5 kmh 29.62 in1003.0 mb - 0.00 in0.0 mm 0.00 in0.0 mm
09:00 AM 48.1°F8.9°C 44.1°F6.7°C 86% 12.7 mph W20.4 kmh W 15.0 mph24.1 kmh 29.62 in1003.0 mb - 0.00 in0.0 mm 0.00 in0.0 mm
09:10 AM 48.1°F8.9°C 44.1°F6.7°C 86% 16.1 mph WNW25.9 kmh WNW 24.2 mph38.9 kmh 29.62 in1003.0 mb - 0.00 in0.0 mm 0.00 in0.0 mm
09:15 AM 47.6°F8.7°C 43.7°F6.5°C 86% 16.1 mph W25.9 kmh W 24.2 mph38.9 kmh 29.62 in1003.0 mb - 0.00 in0.0 mm 0.00 in0.0 mm
09:20 AM 47.1°F8.4°C 43.7°F6.5°C 88% 12.7 mph W20.4 kmh W 15.0 mph24.1 kmh 29.62 in1003.0 mb - 0.00 in0.0 mm 0.00 in0.0 mm
09:25 AM 46.9°F8.3°C 43.5°F6.4°C 88% 11.5 mph W18.5 kmh W 15.0 mph24.1 kmh 29.62 in1003.0 mb - 0.00 in0.0 mm 0.00 in0.0 mm
09:30 AM 47.2°F8.4°C 44.1°F6.7°C 89% 11.5 mph WNW18.5 kmh WNW 18.4 mph29.6 kmh 29.62 in1003.0 mb - 0.00 in0.0 mm 0.00 in0.0 mm
09:35 AM 48.0°F8.9°C 44.9°F7.2°C 89% 12.7 mph W20.4 kmh W 19.6 mph31.5 kmh 29.61 in1002.7 mb - 0.00 in0.0 mm 0.00 in0.0 mm
09:40 AM 48.7°F9.3°C 45.0°F7.2°C 87% 12.7 mph W20.4 kmh W 17.3 mph27.8 kmh 29.61 in1002.7 mb - 0.00 in0.0 mm 0.00 in0.0 mm
09:45 AM 48.6°F9.2°C 44.0°F6.7°C 84% 12.7 mph W20.4 kmh W 18.4 mph29.6 kmh 29.61 in1002.7 mb - 0.00 in0.0 mm 0.00 in0.0 mm
09:50 AM 48.5°F9.2°C 43.6°F6.4°C 83% 13.8 mph W22.2 kmh W 19.6 mph31.5 kmh 29.61 in1002.7 mb - 0.00 in0.0 mm 0.00 in0.0 mm
09:55 AM 48.7°F9.3°C 43.4°F6.3°C 82% 15.0 mph W24.1 kmh W 17.3 mph27.8 kmh 29.61 in1002.7 mb - 0.00 in0.0 mm 0.00 in0.0 mm
10:00 AM 48.9°F9.4°C 43.6°F6.4°C 82% 15.0 mph W24.1 kmh W 29.9 mph48.1 kmh 29.61 in1002.7 mb - 0.00 in0.0 mm 0.00 in0.0 mm
10:10 AM 49.1°F9.5°C 43.5°F6.4°C 81% 13.8 mph W22.2 kmh W 18.4 mph29.6 kmh 29.61 in1002.7 mb - 0.00 in0.0 mm 0.00 in0.0 mm
10:15 AM 49.0°F9.4°C 43.4°F6.3°C 81% 11.5 mph WNW18.5 kmh WNW 20.7 mph33.3 kmh 29.61 in1002.7 mb - 0.00 in0.0 mm 0.00 in0.0 mm
10:20 AM 48.9°F9.4°C 43.3°F6.3°C 81% 16.1 mph W25.9 kmh W 23.0 mph37.0 kmh 29.61 in1002.7 mb - 0.00 in0.0 mm 0.00 in0.0 mm
10:25 AM 48.9°F9.4°C 43.6°F6.4°C 82% 12.7 mph WNW20.4 kmh WNW 19.6 mph31.5 kmh 29.61 in1002.7 mb - 0.00 in0.0 mm 0.00 in0.0 mm
10:30 AM 49.0°F9.4°C 43.7°F6.5°C 82% 11.5 mph W18.5 kmh W 15.0 mph24.1 kmh 29.61 in1002.7 mb - 0.00 in0.0 mm 0.00 in0.0 mm
10:35 AM 48.9°F9.4°C 43.6°F6.4°C 82% 13.8 mph W22.2 kmh W 19.6 mph31.5 kmh 29.61 in1002.7 mb - 0.00 in0.0 mm 0.00 in0.0 mm
10:40 AM 49.1°F9.5°C 44.1°F6.7°C 83% 15.0 mph W24.1 kmh W 19.6 mph31.5 kmh 29.61 in1002.7 mb - 0.00 in0.0 mm 0.00 in0.0 mm
10:45 AM 49.2°F9.6°C 44.3°F6.8°C 83% 16.1 mph WNW25.9 kmh WNW 19.6 mph31.5 kmh 29.61 in1002.7 mb - 0.00 in0.0 mm 0.00 in0.0 mm
10:50 AM 49.3°F9.6°C 44.4°F6.9°C 83% 15.0 mph W24.1 kmh W 18.4 mph29.6 kmh 29.60 in1002.4 mb - 0.00 in0.0 mm 0.00 in0.0 mm
10:55 AM 49.0°F9.4°C 44.4°F6.9°C 84% 15.0 mph W24.1 kmh W 18.4 mph29.6 kmh 29.61 in1002.7 mb - 0.00 in0.0 mm 0.00 in0.0 mm
11:00 AM 48.6°F9.2°C 44.6°F7.0°C 86% 15.0 mph W24.1 kmh W 19.6 mph31.5 kmh 29.61 in1002.7 mb - 0.00 in0.0 mm 0.00 in0.0 mm
11:10 AM 47.9°F8.8°C 44.3°F6.8°C 87% 13.8 mph WNW22.2 kmh WNW 25.3 mph40.7 kmh 29.61 in1002.7 mb - 0.00 in0.0 mm 0.00 in0.0 mm
11:15 AM 47.6°F8.7°C 44.2°F6.8°C 88% 13.8 mph W22.2 kmh W 16.1 mph25.9 kmh 29.61 in1002.7 mb - 0.00 in0.0 mm 0.00 in0.0 mm
11:20 AM 47.5°F8.6°C 44.4°F6.9°C 89% 11.5 mph WNW18.5 kmh WNW 21.9 mph35.2 kmh 29.61 in1002.7 mb - 0.00 in0.0 mm 0.00 in0.0 mm
11:25 AM 47.5°F8.6°C 44.4°F6.9°C 89% 12.7 mph WNW20.4 kmh WNW 18.4 mph29.6 kmh 29.61 in1002.7 mb - 0.00 in0.0 mm 0.00 in0.0 mm
11:30 AM 47.4°F8.6°C 44.4°F6.9°C 89% 15.0 mph W24.1 kmh W 18.4 mph29.6 kmh 29.61 in1002.7 mb - 0.00 in0.0 mm 0.00 in0.0 mm
11:35 AM 47.6°F8.7°C 44.6°F7.0°C 89% 12.7 mph W20.4 kmh W 17.3 mph27.8 kmh 29.61 in1002.7 mb - 0.00 in0.0 mm 0.00 in0.0 mm
11:40 AM 47.9°F8.8°C 44.8°F7.1°C 89% 10.4 mph W16.7 kmh W 13.8 mph22.2 kmh 29.60 in1002.4 mb - 0.00 in0.0 mm 0.00 in0.0 mm
11:45 AM 47.9°F8.8°C 44.5°F6.9°C 88% 16.1 mph W25.9 kmh W 19.6 mph31.5 kmh 29.60 in1002.4 mb - 0.00 in0.0 mm 0.00 in0.0 mm
11:50 AM 48.1°F8.9°C 44.4°F6.9°C 87% 12.7 mph W20.4 kmh W 19.6 mph31.5 kmh 29.60 in1002.4 mb - 0.00 in0.0 mm 0.00 in0.0 mm
11:55 AM 48.2°F9.0°C 44.2°F6.8°C 86% 11.5 mph W18.5 kmh W 19.6 mph31.5 kmh 29.60 in1002.4 mb - 0.00 in0.0 mm 0.00 in0.0 mm
12:00 PM 48.3°F9.1°C 43.7°F6.5°C 84% 17.3 mph W27.8 kmh W 24.2 mph38.9 kmh 29.60 in1002.4 mb - 0.00 in0.0 mm 0.00 in0.0 mm
12:10 PM 48.8°F9.3°C 43.2°F6.2°C 81% 15.0 mph W24.1 kmh W 18.4 mph29.6 kmh 29.60 in1002.4 mb - 0.00 in0.0 mm 0.00 in0.0 mm
12:15 PM 48.9°F9.4°C 43.3°F6.3°C 81% 13.8 mph W22.2 kmh W 19.6 mph31.5 kmh 29.60 in1002.4 mb - 0.00 in0.0 mm 0.00 in0.0 mm
12:20 PM 49.0°F9.4°C 42.8°F6.0°C 79% 16.1 mph W25.9 kmh W 21.9 mph35.2 kmh 29.60 in1002.4 mb - 0.00 in0.0 mm 0.00 in0.0 mm
12:25 PM 49.1°F9.5°C 42.9°F6.1°C 79% 13.8 mph W22.2 kmh W 19.6 mph31.5 kmh 29.60 in1002.4 mb - 0.00 in0.0 mm 0.00 in0.0 mm
12:30 PM 49.3°F9.6°C 43.0°F6.1°C 79% 17.3 mph W27.8 kmh W 23.0 mph37.0 kmh 29.60 in1002.4 mb - 0.00 in0.0 mm 0.00 in0.0 mm
12:35 PM 49.4°F9.7°C 43.1°F6.2°C 79% 12.7 mph W20.4 kmh W 15.0 mph24.1 kmh 29.60 in1002.4 mb - 0.00 in0.0 mm 0.00 in0.0 mm
12:40 PM 49.7°F9.8°C 43.1°F6.2°C 78% 17.3 mph W27.8 kmh W 24.2 mph38.9 kmh 29.60 in1002.4 mb - 0.00 in0.0 mm 0.00 in0.0 mm
12:45 PM 49.8°F9.9°C 42.9°F6.1°C 77% 18.4 mph W29.6 kmh W 27.6 mph44.4 kmh 29.60 in1002.4 mb - 0.00 in0.0 mm 0.00 in0.0 mm
12:50 PM 49.8°F9.9°C 42.8°F6.0°C 77% 10.4 mph W16.7 kmh W 12.7 mph20.4 kmh 29.60 in1002.4 mb - 0.00 in0.0 mm 0.00 in0.0 mm
12:55 PM 49.9°F9.9°C 43.3°F6.3°C 78% 13.8 mph W22.2 kmh W 19.6 mph31.5 kmh 29.60 in1002.4 mb - 0.00 in0.0 mm 0.00 in0.0 mm
01:00 PM 49.5°F9.7°C 42.6°F5.9°C 77% 16.1 mph W25.9 kmh W 19.6 mph31.5 kmh 29.60 in1002.4 mb - 0.00 in0.0 mm 0.00 in0.0 mm
01:10 PM 49.5°F9.7°C 42.6°F5.9°C 77% 15.0 mph W24.1 kmh W 26.5 mph42.6 kmh 29.60 in1002.4 mb - 0.00 in0.0 mm 0.00 in0.0 mm
01:15 PM 49.6°F9.8°C 42.4°F5.8°C 76% 15.0 mph W24.1 kmh W 17.3 mph27.8 kmh 29.59 in1002.0 mb - 0.00 in0.0 mm 0.00 in0.0 mm
01:20 PM 49.8°F9.9°C 41.8°F5.4°C 74% 18.4 mph W29.6 kmh W 26.5 mph42.6 kmh 29.59 in1002.0 mb - 0.00 in0.0 mm 0.00 in0.0 mm
01:25 PM 49.9°F9.9°C 41.2°F5.1°C 72% 16.1 mph W25.9 kmh W 19.6 mph31.5 kmh 29.59 in1002.0 mb - 0.00 in0.0 mm 0.00 in0.0 mm
01:30 PM 50.0°F10.0°C 41.3°F5.2°C 72% 18.4 mph W29.6 kmh W 27.6 mph44.4 kmh 29.60 in1002.4 mb - 0.00 in0.0 mm 0.00 in0.0 mm
01:35 PM 50.0°F10.0°C 41.7°F5.4°C 73% 19.6 mph WNW31.5 kmh WNW 27.6 mph44.4 kmh 29.59 in1002.0 mb - 0.00 in0.0 mm 0.00 in0.0 mm
01:40 PM 50.2°F10.1°C 41.5°F5.3°C 72% 15.0 mph WNW24.1 kmh WNW 18.4 mph29.6 kmh 29.59 in1002.0 mb - 0.00 in0.0 mm 0.00 in0.0 mm
01:45 PM 51.1°F10.6°C 42.7°F5.9°C 73% 15.0 mph W24.1 kmh W 21.9 mph35.2 kmh 29.59 in1002.0 mb - 0.00 in0.0 mm 0.00 in0.0 mm
01:50 PM 51.2°F10.7°C 42.1°F5.6°C 71% 15.0 mph WSW24.1 kmh WSW 19.6 mph31.5 kmh 29.59 in1002.0 mb - 0.00 in0.0 mm 0.00 in0.0 mm
01:55 PM 51.4°F10.8°C 42.7°F5.9°C 72% 13.8 mph WNW22.2 kmh WNW 21.9 mph35.2 kmh 29.59 in1002.0 mb - 0.00 in0.0 mm 0.00 in0.0 mm
02:00 PM 51.7°F10.9°C 42.2°F5.7°C 70% 16.1 mph WNW25.9 kmh WNW 25.3 mph40.7 kmh 29.59 in1002.0 mb - 0.00 in0.0 mm 0.00 in0.0 mm
02:10 PM 51.8°F11.0°C 42.7°F5.9°C 71% 18.4 mph W29.6 kmh W 29.9 mph48.1 kmh 29.59 in1002.0 mb - 0.00 in0.0 mm 0.00 in0.0 mm
02:15 PM 51.5°F10.8°C 41.7°F5.4°C 69% 19.6 mph WNW31.5 kmh WNW 29.9 mph48.1 kmh 29.59 in1002.0 mb - 0.00 in0.0 mm 0.00 in0.0 mm
02:20 PM 51.4°F10.8°C 41.6°F5.3°C 69% 13.8 mph W22.2 kmh W 23.0 mph37.0 kmh 29.59 in1002.0 mb - 0.00 in0.0 mm 0.00 in0.0 mm
02:25 PM 51.8°F11.0°C 41.6°F5.3°C 68% 17.3 mph WNW27.8 kmh WNW 24.2 mph38.9 kmh 29.58 in1001.7 mb - 0.00 in0.0 mm 0.00 in0.0 mm
02:30 PM 52.0°F11.1°C 42.1°F5.6°C 69% 11.5 mph W18.5 kmh W 16.1 mph25.9 kmh 29.59 in1002.0 mb - 0.00 in0.0 mm 0.00 in0.0 mm
02:35 PM 51.6°F10.9°C 41.4°F5.2°C 68% 16.1 mph WNW25.9 kmh WNW 19.6 mph31.5 kmh 29.58 in1001.7 mb - 0.00 in0.0 mm 0.00 in0.0 mm
02:40 PM 51.0°F10.6°C 41.6°F5.3°C 70% 12.7 mph NW20.4 kmh NW 21.9 mph35.2 kmh 29.58 in1001.7 mb - 0.00 in0.0 mm 0.00 in0.0 mm
02:45 PM 50.4°F10.2°C 41.7°F5.4°C 72% 15.0 mph NW24.1 kmh NW 19.6 mph31.5 kmh 29.58 in1001.7 mb - 0.00 in0.0 mm 0.00 in0.0 mm
02:50 PM 49.7°F9.8°C 41.3°F5.2°C 73% 15.0 mph WNW24.1 kmh WNW 21.9 mph35.2 kmh 29.59 in1002.0 mb - 0.00 in0.0 mm 0.00 in0.0 mm
02:55 PM 49.4°F9.7°C 40.7°F4.8°C 72% 13.8 mph W22.2 kmh W 23.0 mph37.0 kmh 29.59 in1002.0 mb - 0.00 in0.0 mm 0.00 in0.0 mm
03:00 PM 49.8°F9.9°C 40.8°F4.9°C 71% 13.8 mph W22.2 kmh W 21.9 mph35.2 kmh 29.59 in1002.0 mb - 0.00 in0.0 mm 0.00 in0.0 mm
03:10 PM 50.1°F10.1°C 39.9°F4.4°C 68% 13.8 mph WNW22.2 kmh WNW 17.3 mph27.8 kmh 29.59 in1002.0 mb - 0.00 in0.0 mm 0.00 in0.0 mm
03:15 PM 49.7°F9.8°C 39.5°F4.2°C 68% 17.3 mph W27.8 kmh W 25.3 mph40.7 kmh 29.59 in1002.0 mb - 0.00 in0.0 mm 0.00 in0.0 mm
03:20 PM 49.5°F9.7°C 39.7°F4.3°C 69% 16.1 mph WNW25.9 kmh WNW 24.2 mph38.9 kmh 29.58 in1001.7 mb - 0.00 in0.0 mm 0.00 in0.0 mm
03:25 PM 49.6°F9.8°C 39.8°F4.3°C 69% 17.3 mph WNW27.8 kmh WNW 21.9 mph35.2 kmh 29.59 in1002.0 mb - 0.00 in0.0 mm 0.00 in0.0 mm
03:30 PM 51.1°F10.6°C 42.1°F5.6°C 71% 13.8 mph W22.2 kmh W 20.7 mph33.3 kmh 29.59 in1002.0 mb - 0.00 in0.0 mm 0.00 in0.0 mm
03:35 PM 51.0°F10.6°C 41.2°F5.1°C 69% 19.6 mph WNW31.5 kmh WNW 23.0 mph37.0 kmh 29.58 in1001.7 mb - 0.00 in0.0 mm 0.00 in0.0 mm
03:40 PM 49.8°F9.9°C 40.4°F4.7°C 70% 15.0 mph WNW24.1 kmh WNW 19.6 mph31.5 kmh 29.58 in1001.7 mb - 0.00 in0.0 mm 0.00 in0.0 mm
03:45 PM 49.2°F9.6°C 40.6°F4.8°C 72% 11.5 mph NW18.5 kmh NW 20.7 mph33.3 kmh 29.58 in1001.7 mb - 0.00 in0.0 mm 0.00 in0.0 mm
03:50 PM 49.1°F9.5°C 40.8°F4.9°C 73% 12.7 mph W20.4 kmh W 17.3 mph27.8 kmh 29.58 in1001.7 mb - 0.00 in0.0 mm 0.00 in0.0 mm
03:55 PM 49.5°F9.7°C 40.5°F4.7°C 71% 15.0 mph WNW24.1 kmh WNW 19.6 mph31.5 kmh 29.58 in1001.7 mb - 0.00 in0.0 mm 0.00 in0.0 mm
04:00 PM 49.8°F9.9°C 40.4°F4.7°C 70% 17.3 mph NW27.8 kmh NW 24.2 mph38.9 kmh 29.58 in1001.7 mb - 0.00 in0.0 mm 0.00 in0.0 mm
04:10 PM 51.7°F10.9°C 40.7°F4.8°C 66% 17.3 mph W27.8 kmh W 24.2 mph38.9 kmh 29.57 in1001.4 mb - 0.00 in0.0 mm 0.00 in0.0 mm
04:15 PM 50.9°F10.5°C 39.6°F4.2°C 65% 19.6 mph W31.5 kmh W 24.2 mph38.9 kmh 29.58 in1001.7 mb - 0.00 in0.0 mm 0.00 in0.0 mm
04:20 PM 50.2°F10.1°C 38.9°F3.8°C 65% 12.7 mph WNW20.4 kmh WNW 13.8 mph22.2 kmh 29.58 in1001.7 mb - 0.00 in0.0 mm 0.00 in0.0 mm
04:25 PM 49.7°F9.8°C 38.4°F3.6°C 65% 17.3 mph WNW27.8 kmh WNW 25.3 mph40.7 kmh 29.58 in1001.7 mb - 0.00 in0.0 mm 0.00 in0.0 mm
04:30 PM 49.5°F9.7°C 39.0°F3.9°C 67% 15.0 mph W24.1 kmh W 21.9 mph35.2 kmh 29.58 in1001.7 mb - 0.00 in0.0 mm 0.00 in0.0 mm
04:35 PM 49.7°F9.8°C 38.8°F3.8°C 66% 18.4 mph W29.6 kmh W 27.6 mph44.4 kmh 29.58 in1001.7 mb - 0.00 in0.0 mm 0.00 in0.0 mm
04:40 PM 49.1°F9.5°C 38.2°F3.4°C 66% 19.6 mph W31.5 kmh W 24.2 mph38.9 kmh 29.58 in1001.7 mb - 0.00 in0.0 mm 0.00 in0.0 mm
04:45 PM 48.6°F9.2°C 38.1°F3.4°C 67% 17.3 mph W27.8 kmh W 20.7 mph33.3 kmh 29.58 in1001.7 mb - 0.00 in0.0 mm 0.00 in0.0 mm
04:50 PM 48.3°F9.1°C 37.9°F3.3°C 67% 15.0 mph WNW24.1 kmh WNW 20.7 mph33.3 kmh 29.59 in1002.0 mb - 0.00 in0.0 mm 0.00 in0.0 mm
04:55 PM 48.4°F9.1°C 38.3°F3.5°C 68% 13.8 mph WNW22.2 kmh WNW 18.4 mph29.6 kmh 29.59 in1002.0 mb - 0.00 in0.0 mm 0.00 in0.0 mm
05:00 PM 48.9°F9.4°C 38.8°F3.8°C 68% 15.0 mph NW24.1 kmh NW 20.7 mph33.3 kmh 29.59 in1002.0 mb - 0.00 in0.0 mm 0.00 in0.0 mm
05:10 PM 48.7°F9.3°C 38.2°F3.4°C 67% 19.6 mph WNW31.5 kmh WNW 26.5 mph42.6 kmh 29.59 in1002.0 mb - 0.00 in0.0 mm 0.00 in0.0 mm
05:15 PM 49.0°F9.4°C 38.6°F3.7°C 67% 12.7 mph W20.4 kmh W 18.4 mph29.6 kmh 29.59 in1002.0 mb - 0.00 in0.0 mm 0.00 in0.0 mm
05:20 PM 49.3°F9.6°C 36.9°F2.7°C 62% 19.6 mph WNW31.5 kmh WNW 24.2 mph38.9 kmh 29.59 in1002.0 mb - 0.00 in0.0 mm 0.00 in0.0 mm
05:25 PM 49.3°F9.6°C 36.4°F2.4°C 61% 17.3 mph W27.8 kmh W 24.2 mph38.9 kmh 29.59 in1002.0 mb - 0.00 in0.0 mm 0.00 in0.0 mm
05:30 PM 48.7°F9.3°C 35.9°F2.2°C 61% 16.1 mph W25.9 kmh W 24.2 mph38.9 kmh 29.59 in1002.0 mb - 0.00 in0.0 mm 0.00 in0.0 mm
05:35 PM 47.9°F8.8°C 35.9°F2.2°C 63% 17.3 mph W27.8 kmh W 19.6 mph31.5 kmh 29.59 in1002.0 mb - 0.00 in0.0 mm 0.00 in0.0 mm
05:40 PM 48.3°F9.1°C 37.0°F2.8°C 65% 12.7 mph WNW20.4 kmh WNW 19.6 mph31.5 kmh 29.59 in1002.0 mb - 0.00 in0.0 mm 0.00 in0.0 mm
05:45 PM 48.6°F9.2°C 36.1°F2.3°C 62% 19.6 mph NW31.5 kmh NW 23.0 mph37.0 kmh 29.59 in1002.0 mb - 0.00 in0.0 mm 0.00 in0.0 mm
05:50 PM 48.0°F8.9°C 36.0°F2.2°C 63% 16.1 mph WNW25.9 kmh WNW 21.9 mph35.2 kmh 29.60 in1002.4 mb - 0.00 in0.0 mm 0.00 in0.0 mm
05:55 PM 47.9°F8.8°C 35.1°F1.7°C 61% 19.6 mph WNW31.5 kmh WNW 26.5 mph42.6 kmh 29.60 in1002.4 mb - 0.00 in0.0 mm 0.00 in0.0 mm
06:00 PM 47.7°F8.7°C 33.6°F0.9°C 58% 17.3 mph WNW27.8 kmh WNW 28.8 mph46.3 kmh 29.60 in1002.4 mb - 0.00 in0.0 mm 0.00 in0.0 mm
06:10 PM 46.8°F8.2°C 33.2°F0.7°C 59% 16.1 mph WNW25.9 kmh WNW 27.6 mph44.4 kmh 29.60 in1002.4 mb - 0.00 in0.0 mm 0.00 in0.0 mm
06:15 PM 46.6°F8.1°C 33.4°F0.8°C 60% 11.5 mph WNW18.5 kmh WNW 17.3 mph27.8 kmh 29.60 in1002.4 mb - 0.00 in0.0 mm 0.00 in0.0 mm
06:20 PM 46.6°F8.1°C 33.4°F0.8°C 60% 13.8 mph WNW22.2 kmh WNW 19.6 mph31.5 kmh 29.60 in1002.4 mb - 0.00 in0.0 mm 0.00 in0.0 mm
06:25 PM 46.6°F8.1°C 34.3°F1.3°C 62% 11.5 mph NW18.5 kmh NW 17.3 mph27.8 kmh 29.60 in1002.4 mb - 0.00 in0.0 mm 0.00 in0.0 mm
06:30 PM 47.0°F8.3°C 35.9°F2.2°C 65% 16.1 mph WNW25.9 kmh WNW 18.4 mph29.6 kmh 29.60 in1002.4 mb - 0.00 in0.0 mm 0.00 in0.0 mm
06:35 PM 47.0°F8.3°C 35.8°F2.1°C 65% 8.1 mph NW13.0 kmh NW 11.5 mph18.5 kmh 29.61 in1002.7 mb - 0.00 in0.0 mm 0.00 in0.0 mm
06:40 PM 46.6°F8.1°C 34.7°F1.5°C 63% 12.7 mph WNW20.4 kmh WNW 19.6 mph31.5 kmh 29.61 in1002.7 mb - 0.00 in0.0 mm 0.00 in0.0 mm
06:45 PM 46.6°F8.1°C 33.9°F1.1°C 61% 16.1 mph NW25.9 kmh NW 26.5 mph42.6 kmh 29.61 in1002.7 mb - 0.00 in0.0 mm 0.00 in0.0 mm
06:50 PM 46.3°F7.9°C 34.8°F1.6°C 64% 13.8 mph NW22.2 kmh NW 18.4 mph29.6 kmh 29.61 in1002.7 mb - 0.00 in0.0 mm 0.00 in0.0 mm
06:55 PM 45.7°F7.6°C 34.6°F1.4°C 65% 12.7 mph NW20.4 kmh NW 15.0 mph24.1 kmh 29.61 in1002.7 mb - 0.00 in0.0 mm 0.00 in0.0 mm
07:00 PM 45.4°F7.4°C 34.7°F1.5°C 66% 11.5 mph WNW18.5 kmh WNW 15.0 mph24.1 kmh 29.61 in1002.7 mb - 0.00 in0.0 mm 0.00 in0.0 mm
07:10 PM 45.6°F7.6°C 35.2°F1.8°C 67% 11.5 mph NW18.5 kmh NW 19.6 mph31.5 kmh 29.61 in1002.7 mb - 0.00 in0.0 mm 0.00 in0.0 mm
07:15 PM 45.6°F7.6°C 34.9°F1.6°C 66% 11.5 mph NW18.5 kmh NW 17.3 mph27.8 kmh 29.61 in1002.7 mb - 0.00 in0.0 mm 0.00 in0.0 mm
07:20 PM 45.3°F7.4°C 34.2°F1.2°C 65% 11.5 mph W18.5 kmh W 15.0 mph24.1 kmh 29.62 in1003.0 mb - 0.00 in0.0 mm 0.00 in0.0 mm
07:25 PM 45.1°F7.3°C 33.2°F0.7°C 63% 16.1 mph WNW25.9 kmh WNW 19.6 mph31.5 kmh 29.61 in1002.7 mb - 0.00 in0.0 mm 0.00 in0.0 mm
07:30 PM 45.0°F7.2°C 33.6°F0.9°C 64% 11.5 mph WNW18.5 kmh WNW 12.7 mph20.4 kmh 29.61 in1002.7 mb - 0.00 in0.0 mm 0.00 in0.0 mm
07:35 PM 44.8°F7.1°C 33.7°F0.9°C 65% 13.8 mph WNW22.2 kmh WNW 21.9 mph35.2 kmh 29.61 in1002.7 mb - 0.00 in0.0 mm 0.00 in0.0 mm
07:40 PM 44.8°F7.1°C 33.7°F0.9°C 65% 11.5 mph WNW18.5 kmh WNW 19.6 mph31.5 kmh 29.62 in1003.0 mb - 0.00 in0.0 mm 0.00 in0.0 mm
07:45 PM 44.7°F7.1°C 32.9°F0.5°C 63% 12.7 mph NW20.4 kmh NW 15.0 mph24.1 kmh 29.62 in1003.0 mb - 0.00 in0.0 mm 0.00 in0.0 mm
07:50 PM 44.6°F7.0°C 33.2°F0.7°C 64% 10.4 mph NW16.7 kmh NW 11.5 mph18.5 kmh 29.62 in1003.0 mb - 0.00 in0.0 mm 0.00 in0.0 mm
07:55 PM 44.5°F6.9°C 33.1°F0.6°C 64% 12.7 mph NW20.4 kmh NW 17.3 mph27.8 kmh 29.63 in1003.4 mb - 0.00 in0.0 mm 0.00 in0.0 mm
08:00 PM 44.3°F6.8°C 32.9°F0.5°C 64% 10.4 mph WNW16.7 kmh WNW 12.7 mph20.4 kmh 29.62 in1003.0 mb - 0.00 in0.0 mm 0.00 in0.0 mm
08:10 PM 43.9°F6.6°C 32.5°F0.3°C 64% 11.5 mph NW18.5 kmh NW 16.1 mph25.9 kmh 29.62 in1003.0 mb - 0.00 in0.0 mm 0.00 in0.0 mm
08:15 PM 43.6°F6.4°C 32.2°F0.1°C 64% 10.4 mph W16.7 kmh W 17.3 mph27.8 kmh 29.63 in1003.4 mb - 0.00 in0.0 mm 0.00 in0.0 mm
08:20 PM 43.3°F6.3°C 32.7°F0.4°C 66% 10.4 mph WNW16.7 kmh WNW 13.8 mph22.2 kmh 29.63 in1003.4 mb - 0.00 in0.0 mm 0.00 in0.0 mm
08:25 PM 43.1°F6.2°C 32.1°F0.1°C 65% 10.4 mph NW16.7 kmh NW 17.3 mph27.8 kmh 29.64 in1003.7 mb - 0.00 in0.0 mm 0.00 in0.0 mm
08:30 PM 43.1°F6.2°C 31.7°F-0.2°C 64% 10.4 mph WNW16.7 kmh WNW 11.5 mph18.5 kmh 29.64 in1003.7 mb - 0.00 in0.0 mm 0.00 in0.0 mm
08:35 PM 43.0°F6.1°C 31.2°F-0.4°C 63% 9.2 mph WNW14.8 kmh WNW 11.5 mph18.5 kmh 29.64 in1003.7 mb - 0.00 in0.0 mm 0.00 in0.0 mm
08:40 PM 42.7°F5.9°C 31.3°F-0.4°C 64% 6.9 mph WNW11.1 kmh WNW 13.8 mph22.2 kmh 29.64 in1003.7 mb - 0.00 in0.0 mm 0.00 in0.0 mm
08:45 PM 42.4°F5.8°C 31.1°F-0.5°C 64% 9.2 mph WNW14.8 kmh WNW 12.7 mph20.4 kmh 29.64 in1003.7 mb - 0.00 in0.0 mm 0.00 in0.0 mm
08:50 PM 42.1°F5.6°C 31.2°F-0.4°C 65% 8.1 mph WNW13.0 kmh WNW 11.5 mph18.5 kmh 29.64 in1003.7 mb - 0.00 in0.0 mm 0.00 in0.0 mm
08:55 PM 41.9°F5.5°C 31.4°F-0.3°C 66% 8.1 mph WNW13.0 kmh WNW 11.5 mph18.5 kmh 29.64 in1003.7 mb - 0.00 in0.0 mm 0.00 in0.0 mm
09:00 PM 41.8°F5.4°C 31.3°F-0.4°C 66% 9.2 mph W14.8 kmh W 11.5 mph18.5 kmh 29.64 in1003.7 mb - 0.00 in0.0 mm 0.00 in0.0 mm
09:10 PM 41.7°F5.4°C 31.2°F-0.4°C 66% 12.7 mph WNW20.4 kmh WNW 15.0 mph24.1 kmh 29.64 in1003.7 mb - 0.00 in0.0 mm 0.00 in0.0 mm
09:15 PM 41.7°F5.4°C 31.6°F-0.2°C 67% 9.2 mph WNW14.8 kmh WNW 12.7 mph20.4 kmh 29.64 in1003.7 mb - 0.00 in0.0 mm 0.00 in0.0 mm
09:20 PM 41.6°F5.3°C 31.5°F-0.3°C 67% 9.2 mph NW14.8 kmh NW 9.2 mph14.8 kmh 29.64 in1003.7 mb - 0.00 in0.0 mm 0.00 in0.0 mm
09:25 PM 41.4°F5.2°C 31.3°F-0.4°C 67% 6.9 mph WNW11.1 kmh WNW 11.5 mph18.5 kmh 29.64 in1003.7 mb - 0.00 in0.0 mm 0.00 in0.0 mm
09:30 PM 41.2°F5.1°C 31.4°F-0.3°C 68% 8.1 mph W13.0 kmh W 12.7 mph20.4 kmh 29.64 in1003.7 mb - 0.00 in0.0 mm 0.00 in0.0 mm
09:35 PM 41.1°F5.1°C 31.3°F-0.4°C 68% 8.1 mph W13.0 kmh W 10.4 mph16.7 kmh 29.64 in1003.7 mb - 0.00 in0.0 mm 0.00 in0.0 mm
09:40 PM 40.9°F4.9°C 31.5°F-0.3°C 69% 8.1 mph WNW13.0 kmh WNW 11.5 mph18.5 kmh 29.64 in1003.7 mb - 0.00 in0.0 mm 0.00 in0.0 mm
09:45 PM 40.8°F4.9°C 31.8°F-0.1°C 70% 5.8 mph W9.3 kmh W 8.1 mph13.0 kmh 29.65 in1004.1 mb - 0.00 in0.0 mm 0.00 in0.0 mm
09:50 PM 40.9°F4.9°C 31.9°F-0.1°C 70% 9.2 mph WNW14.8 kmh WNW 11.5 mph18.5 kmh 29.65 in1004.1 mb - 0.00 in0.0 mm 0.00 in0.0 mm
09:55 PM 40.9°F4.9°C 31.8°F-0.1°C 70% 9.2 mph WNW14.8 kmh WNW 11.5 mph18.5 kmh 29.65 in1004.1 mb - 0.00 in0.0 mm 0.00 in0.0 mm
10:00 PM 40.9°F4.9°C 31.9°F-0.1°C 70% 6.9 mph WNW11.1 kmh WNW 12.7 mph20.4 kmh 29.65 in1004.1 mb - 0.00 in0.0 mm 0.00 in0.0 mm
10:10 PM 40.6°F4.8°C 32.0°F0.0°C 71% 5.8 mph WNW9.3 kmh WNW 6.9 mph11.1 kmh 29.65 in1004.1 mb - 0.00 in0.0 mm 0.00 in0.0 mm
10:15 PM 40.5°F4.7°C 31.9°F-0.1°C 71% 8.1 mph W13.0 kmh W 10.4 mph16.7 kmh 29.65 in1004.1 mb - 0.00 in0.0 mm 0.00 in0.0 mm
10:20 PM 40.7°F4.8°C 32.0°F0.0°C 71% 6.9 mph W11.1 kmh W 9.2 mph14.8 kmh 29.65 in1004.1 mb - 0.00 in0.0 mm 0.00 in0.0 mm
10:25 PM 40.4°F4.7°C 32.1°F0.1°C 72% 8.1 mph W13.0 kmh W 11.5 mph18.5 kmh 29.65 in1004.1 mb - 0.00 in0.0 mm 0.00 in0.0 mm
10:30 PM 40.4°F4.7°C 32.1°F0.1°C 72% 8.1 mph W13.0 kmh W 10.4 mph16.7 kmh 29.65 in1004.1 mb - 0.00 in0.0 mm 0.00 in0.0 mm
10:35 PM 40.5°F4.7°C 32.1°F0.1°C 72% 6.9 mph WNW11.1 kmh WNW 6.9 mph11.1 kmh 29.65 in1004.1 mb - 0.00 in0.0 mm 0.00 in0.0 mm
10:40 PM 40.3°F4.6°C 32.3°F0.2°C 73% 6.9 mph W11.1 kmh W 11.5 mph18.5 kmh 29.65 in1004.1 mb - 0.00 in0.0 mm 0.00 in0.0 mm
10:45 PM 40.0°F4.4°C 32.1°F0.1°C 73% 5.8 mph WNW9.3 kmh WNW 5.8 mph9.3 kmh 29.65 in1004.1 mb - 0.00 in0.0 mm 0.00 in0.0 mm
10:50 PM 39.9°F4.4°C 32.3°F0.2°C 74% 9.2 mph WNW14.8 kmh WNW 12.7 mph20.4 kmh 29.65 in1004.1 mb - 0.00 in0.0 mm 0.00 in0.0 mm
10:55 PM 40.1°F4.5°C 32.5°F0.3°C 74% 9.2 mph WNW14.8 kmh WNW 10.4 mph16.7 kmh 29.65 in1004.1 mb - 0.00 in0.0 mm 0.00 in0.0 mm
11:00 PM 40.4°F4.7°C 32.4°F0.2°C 73% 9.2 mph WNW14.8 kmh WNW 11.5 mph18.5 kmh 29.66 in1004.4 mb - 0.00 in0.0 mm 0.00 in0.0 mm
11:10 PM 40.9°F4.9°C 32.6°F0.3°C 72% 8.1 mph WNW13.0 kmh WNW 8.1 mph13.0 kmh 29.66 in1004.4 mb - 0.00 in0.0 mm 0.00 in0.0 mm
11:15 PM 40.9°F4.9°C 32.6°F0.3°C 72% 9.2 mph W14.8 kmh W 12.7 mph20.4 kmh 29.66 in1004.4 mb - 0.00 in0.0 mm 0.00 in0.0 mm
11:20 PM 40.8°F4.9°C 32.4°F0.2°C 72% 8.1 mph W13.0 kmh W 12.7 mph20.4 kmh 29.66 in1004.4 mb - 0.00 in0.0 mm 0.00 in0.0 mm
11:25 PM 40.8°F4.9°C 32.5°F0.3°C 72% 6.9 mph WNW11.1 kmh WNW 9.2 mph14.8 kmh 29.66 in1004.4 mb - 0.00 in0.0 mm 0.00 in0.0 mm
11:30 PM 41.0°F5.0°C 32.7°F0.4°C 72% 6.9 mph W11.1 kmh W 8.1 mph13.0 kmh 29.66 in1004.4 mb - 0.00 in0.0 mm 0.00 in0.0 mm
11:35 PM 41.1°F5.1°C 33.1°F0.6°C 73% 8.1 mph W13.0 kmh W 10.4 mph16.7 kmh 29.66 in1004.4 mb - 0.00 in0.0 mm 0.00 in0.0 mm
11:40 PM 41.2°F5.1°C 32.8°F0.4°C 72% 9.2 mph W14.8 kmh W 12.7 mph20.4 kmh 29.65 in1004.1 mb - 0.00 in0.0 mm 0.00 in0.0 mm
11:45 PM 41.2°F5.1°C 32.9°F0.5°C 72% 8.1 mph WNW13.0 kmh WNW 12.7 mph20.4 kmh 29.65 in1004.1 mb - 0.00 in0.0 mm 0.00 in0.0 mm
11:50 PM 41.3°F5.2°C 33.0°F0.6°C 72% 8.1 mph WNW13.0 kmh WNW 12.7 mph20.4 kmh 29.66 in1004.4 mb - 0.00 in0.0 mm 0.00 in0.0 mm
11:55 PM 41.2°F5.1°C 32.9°F0.5°C 72% 9.2 mph WNW14.8 kmh WNW 11.5 mph18.5 kmh 29.66 in1004.4 mb - 0.00 in0.0 mm 0.00 in0.0 mm